Time;durP1;ratioP1;P1;durP2;ratioP2;P2;SDS_P1;SDS_P2;PMS_P1;PMS_P2;Temp;Humidity;BMP_temperature;BMP_pressure;BME280_temperature;BME280_humidity;BME280_pressure;Samples;Min_cycle;Max_cycle;Signal;HPM_P1;HPM_P2
2023/05/06 00:01:58;;;;;;;;;3.00;3.00;;;;;-147.47;100.00;64613.53;5056978;28;45601;-82
2023/05/06 00:08:28;;;;;;;;;2.33;2.33;;;;;-147.47;100.00;64613.53;5055635;28;45495;-84
2023/05/06 00:11:55;;;;;;;;;3.33;3.00;;;;;-147.47;100.00;64613.53;5035118;28;45856;-80
2023/05/06 00:22:43;;;;;;;;;;;;;;;;;;;;;
2023/05/06 00:35:54;;;;;;;;;;;;;;;;;;;;;
2023/05/06 00:41:46;;;;;;;;;1.00;1.00;;;;;-147.47;100.00;64613.53;4955219;28;45736;-79
2023/05/06 00:44:13;;;;;;;;;3.00;2.00;;;;;-147.47;100.00;64613.53;4948201;28;46240;-79
2023/05/06 00:46:38;;;;;;;;;2.00;2.00;;;;;-147.47;100.00;64613.53;5056574;28;47371;-82
2023/05/06 00:49:05;;;;;;;;;1.00;1.00;;;;;-147.47;100.00;64613.53;5056717;28;45423;-80
2023/05/06 00:51:31;;;;;;;;;2.33;1.33;;;;;-147.47;100.00;64613.53;5063834;28;45411;-79
2023/05/06 00:53:56;;;;;;;;;2.00;2.00;;;;;-147.47;100.00;64613.53;5055944;28;46794;-80
2023/05/06 00:56:22;;;;;;;;;3.00;2.00;;;;;-147.47;100.00;64613.53;5032096;28;46938;-79
2023/05/06 00:58:48;;;;;;;;;3.33;2.00;;;;;-147.47;100.00;64613.53;4988537;28;1190047;-79
2023/05/06 01:01:14;;;;;;;;;2.67;2.00;;;;;-147.47;100.00;64613.53;5019569;28;45248;-78
2023/05/06 01:03:41;;;;;;;;;1.67;0.67;;;;;-147.47;100.00;64613.53;5033121;28;45703;-78
2023/05/06 01:06:40;;;;;;;;;3.00;3.00;;;;;-147.47;100.00;64613.53;5045452;28;46648;-81
2023/05/06 01:09:21;;;;;;;;;2.00;2.00;;;;;-147.47;100.00;64613.53;5047114;28;45455;-79
2023/05/06 01:11:58;;;;;;;;;2.67;1.00;;;;;-147.47;100.00;64613.53;5031432;28;45393;-79
2023/05/06 01:14:44;;;;;;;;;4.00;3.00;;;;;-147.47;100.00;64613.53;5037765;28;45527;-80
2023/05/06 01:17:15;;;;;;;;;1.00;0.00;;;;;-147.47;100.00;64613.53;5036705;28;45689;-80
2023/05/06 01:19:52;;;;;;;;;4.33;2.00;;;;;-147.47;100.00;64613.53;5018062;28;45877;-79
2023/05/06 01:22:18;;;;;;;;;5.67;3.00;;;;;-147.47;100.00;64613.53;5042190;28;45721;-76
2023/05/06 01:24:45;;;;;;;;;1.00;1.00;;;;;-147.47;100.00;64613.53;5038866;28;45913;-79
2023/05/06 01:27:15;;;;;;;;;4.67;2.33;;;;;-147.47;100.00;64613.53;5035152;28;45634;-80
2023/05/06 01:29:43;;;;;;;;;2.33;2.33;;;;;-147.47;100.00;64613.53;5037408;28;45784;-80
2023/05/06 01:32:50;;;;;;;;;3.33;1.33;;;;;-147.47;100.00;64613.53;5023049;28;45357;-78
2023/05/06 01:35:31;;;;;;;;;4.00;4.00;;;;;-147.47;100.00;64613.53;4989278;28;46221;-79
2023/05/06 01:38:06;;;;;;;;;3.00;3.00;;;;;-147.47;100.00;64613.53;5035247;28;46392;-79
2023/05/06 01:40:34;;;;;;;;;6.33;3.67;;;;;-147.47;100.00;64613.53;5042854;28;45377;-80
2023/05/06 01:43:01;;;;;;;;;2.00;2.00;;;;;-147.47;100.00;64613.53;5038558;28;45488;-80
2023/05/06 01:45:30;;;;;;;;;2.67;2.67;;;;;-147.47;100.00;64613.53;5032998;28;46167;-77
2023/05/06 01:47:56;;;;;;;;;5.00;1.33;;;;;-147.47;100.00;64613.53;5042225;28;45545;-77
2023/05/06 01:50:22;;;;;;;;;3.00;3.00;;;;;-147.47;100.00;64613.53;5040355;28;45921;-79
2023/05/06 01:53:00;;;;;;;;;3.67;2.33;;;;;-147.47;100.00;64613.53;5047375;28;45717;-78
2023/05/06 01:55:26;;;;;;;;;3.00;2.00;;;;;-147.47;100.00;64613.53;5045868;28;45687;-79
2023/05/06 01:57:53;;;;;;;;;3.67;2.00;;;;;-147.47;100.00;64613.53;5032454;28;45581;-78
2023/05/06 02:00:19;;;;;;;;;1.00;1.00;;;;;-147.47;100.00;64613.53;5026303;28;45479;-79
2023/05/06 02:02:44;;;;;;;;;3.67;1.67;;;;;-147.47;100.00;64613.53;5038078;28;44862;-78
2023/05/06 02:05:10;;;;;;;;;3.33;2.00;;;;;-147.47;100.00;64613.53;5035732;28;45670;-78
2023/05/06 02:07:35;;;;;;;;;2.00;2.00;;;;;-147.47;100.00;64613.53;5043184;28;46228;-80
2023/05/06 02:10:00;;;;;;;;;1.67;1.33;;;;;-147.47;100.00;64613.53;5031782;28;45650;-80
2023/05/06 02:12:34;;;;;;;;;1.00;1.00;;;;;-147.47;100.00;64613.53;5052622;28;46357;-80
2023/05/06 02:16:19;;;;;;;;;;;;;;;;;;;;;
2023/05/06 02:19:44;;;;;;;;;;;;;;;;;;;;;
2023/05/06 02:36:24;;;;;;;;;5.00;1.00;;;;;-147.47;100.00;64613.53;5005007;28;45572;-87
2023/05/06 02:40:27;;;;;;;;;3.33;2.00;;;;;-147.47;100.00;64613.53;4973645;28;45949;-87
2023/05/06 02:43:35;;;;;;;;;2.67;2.67;;;;;-147.47;100.00;64613.53;4915543;28;45824;-83
2023/05/06 02:46:10;;;;;;;;;3.00;3.00;;;;;-147.47;100.00;64613.53;4922487;28;46460;-81
2023/05/06 02:48:49;;;;;;;;;2.67;2.00;;;;;-147.47;100.00;64613.53;4971922;28;45506;-81
2023/05/06 02:51:39;;;;;;;;;2.67;1.67;;;;;-147.47;100.00;64613.53;5001747;28;45548;-81
2023/05/06 03:09:15;;;;;;;;;2.00;2.00;;;;;-147.47;100.00;64613.53;4967382;28;45876;-83
2023/05/06 03:19:15;;;;;;;;;5.67;3.33;;;;;-147.47;100.00;64613.53;4972572;28;45817;-82
2023/05/06 03:21:42;;;;;;;;;3.33;3.00;;;;;-147.47;100.00;64613.53;4982327;28;45771;-80
2023/05/06 03:24:08;;;;;;;;;1.33;1.33;;;;;-147.47;100.00;64613.53;4993558;28;45450;-79
2023/05/06 03:26:33;;;;;;;;;2.00;2.00;;;;;-147.47;100.00;64613.53;5059781;28;45422;-80
2023/05/06 03:28:59;;;;;;;;;3.00;1.33;;;;;-147.47;100.00;64613.53;5035350;28;45721;-78
2023/05/06 03:31:24;;;;;;;;;1.67;1.67;;;;;-147.47;100.00;64613.53;5059878;28;45467;-79
2023/05/06 03:33:50;;;;;;;;;3.00;2.00;;;;;-147.47;100.00;64613.53;5053512;28;45614;-80
2023/05/06 03:36:15;;;;;;;;;3.00;2.67;;;;;-147.47;100.00;64613.53;5049608;28;45696;-80
2023/05/06 03:38:41;;;;;;;;;3.00;3.00;;;;;-147.47;100.00;64613.53;5028586;28;45828;-80
2023/05/06 03:41:07;;;;;;;;;2.00;2.00;;;;;-147.47;100.00;64613.53;5034740;28;45658;-79
2023/05/06 03:43:33;;;;;;;;;1.00;1.00;;;;;-147.47;100.00;64613.53;5041989;28;46944;-81
2023/05/06 03:45:58;;;;;;;;;5.00;2.33;;;;;-147.47;100.00;64613.53;5049297;28;45659;-81
2023/05/06 03:48:24;;;;;;;;;2.00;2.00;;;;;-147.47;100.00;64613.53;5056541;28;45708;-81
2023/05/06 03:50:50;;;;;;;;;1.67;1.33;;;;;-147.47;100.00;64613.53;5037862;28;45973;-79
2023/05/06 03:53:16;;;;;;;;;2.33;2.33;;;;;-147.47;100.00;64613.53;5056418;28;45541;-80
2023/05/06 03:55:41;;;;;;;;;2.00;1.00;;;;;-147.47;100.00;64613.53;5035142;28;45451;-80
2023/05/06 03:58:06;;;;;;;;;2.00;2.00;;;;;-147.47;100.00;64613.53;5050412;28;45517;-80
2023/05/06 04:00:32;;;;;;;;;2.00;2.00;;;;;-147.47;100.00;64613.53;5030951;28;46076;-81
2023/05/06 04:02:57;;;;;;;;;3.33;2.67;;;;;-147.47;100.00;64613.53;5049747;28;45723;-78
2023/05/06 04:05:23;;;;;;;;;5.00;4.00;;;;;-147.47;100.00;64613.53;5048094;28;45751;-79
2023/05/06 04:07:49;;;;;;;;;7.00;7.00;;;;;-147.47;100.00;64613.53;5055614;28;45771;-79
2023/05/06 04:10:14;;;;;;;;;13.67;9.67;;;;;-147.47;100.00;64613.53;5033053;28;46672;-78
2023/05/06 04:12:40;;;;;;;;;5.00;3.33;;;;;-147.47;100.00;64613.53;5034337;28;47242;-79
2023/05/06 04:15:06;;;;;;;;;3.67;2.33;;;;;-147.47;100.00;64613.53;5034895;28;45535;-77
2023/05/06 04:17:31;;;;;;;;;2.00;2.00;;;;;-147.47;100.00;64613.53;5060558;28;45359;-78
2023/05/06 04:19:57;;;;;;;;;4.00;3.00;;;;;-147.47;100.00;64613.53;5059428;28;45458;-79
2023/05/06 04:22:22;;;;;;;;;2.00;2.00;;;;;-147.47;100.00;64613.53;5052610;28;46083;-79
2023/05/06 04:24:48;;;;;;;;;5.00;2.67;;;;;-147.47;100.00;64613.53;5052133;28;45368;-79
2023/05/06 04:27:14;;;;;;;;;2.00;2.00;;;;;-147.47;100.00;64613.53;5052593;28;45770;-79
2023/05/06 04:29:39;;;;;;;;;2.00;2.00;;;;;-147.47;100.00;64613.53;5032433;28;46398;-79
2023/05/06 04:32:05;;;;;;;;;1.67;1.67;;;;;-147.47;100.00;64613.53;5052986;28;46414;-79
2023/05/06 04:34:31;;;;;;;;;3.00;3.00;;;;;-147.47;100.00;64613.53;5051220;28;45691;-77
2023/05/06 04:36:57;;;;;;;;;4.33;2.67;;;;;-147.47;100.00;64613.53;5050403;28;45485;-76
2023/05/06 04:39:23;;;;;;;;;2.67;2.67;;;;;-147.47;100.00;64613.53;5051085;28;45522;-78
2023/05/06 04:41:48;;;;;;;;;3.00;2.00;;;;;-147.47;100.00;64613.53;5049717;28;46078;-78
2023/05/06 04:44:14;;;;;;;;;8.00;5.67;;;;;-147.47;100.00;64613.53;5050951;28;45947;-79
2023/05/06 04:46:39;;;;;;;;;3.00;1.33;;;;;-147.47;100.00;64613.53;5051649;28;45531;-79
2023/05/06 04:49:05;;;;;;;;;4.00;3.00;;;;;-147.47;100.00;64613.53;5046394;28;46010;-79
2023/05/06 04:51:30;;;;;;;;;4.00;4.00;;;;;-147.47;100.00;64613.53;5037361;28;46179;-80
2023/05/06 04:53:56;;;;;;;;;4.00;2.00;;;;;-147.47;100.00;64613.53;5056722;28;45422;-80
2023/05/06 04:56:21;;;;;;;;;1.00;1.00;;;;;-147.47;100.00;64613.53;5034042;28;45745;-80
2023/05/06 04:58:47;;;;;;;;;3.67;3.00;;;;;-147.47;100.00;64613.53;5052795;28;45673;-78
2023/05/06 05:01:12;;;;;;;;;2.00;2.00;;;;;-147.47;100.00;64613.53;5053975;28;46527;-79
2023/05/06 05:03:37;;;;;;;;;3.67;3.67;;;;;-147.47;100.00;64613.53;5052045;28;45482;-81
2023/05/06 05:06:03;;;;;;;;;4.33;4.00;;;;;-147.47;100.00;64613.53;5050085;28;45476;-82
2023/05/06 05:08:29;;;;;;;;;6.00;6.00;;;;;-147.47;100.00;64613.53;5033089;28;45716;-80
2023/05/06 05:10:54;;;;;;;;;2.33;2.33;;;;;-147.47;100.00;64613.53;5052350;28;45449;-80
2023/05/06 05:13:20;;;;;;;;;3.33;2.67;;;;;-147.47;100.00;64613.53;5052081;28;45360;-79
2023/05/06 05:15:46;;;;;;;;;2.33;2.33;;;;;-147.47;100.00;64613.53;5052611;28;45705;-80
2023/05/06 05:18:11;;;;;;;;;2.67;2.67;;;;;-147.47;100.00;64613.53;5051840;28;45538;-78
2023/05/06 05:20:36;;;;;;;;;2.67;2.67;;;;;-147.47;100.00;64613.53;5053550;28;46034;-81
2023/05/06 05:23:02;;;;;;;;;3.00;3.00;;;;;-147.47;100.00;64613.53;5052093;28;45438;-80
2023/05/06 05:25:27;;;;;;;;;3.00;3.00;;;;;-147.47;100.00;64613.53;5053252;28;45824;-80
2023/05/06 05:27:53;;;;;;;;;3.00;3.00;;;;;-147.47;100.00;64613.53;5048003;28;45882;-75
2023/05/06 05:30:18;;;;;;;;;4.00;4.00;;;;;-147.47;100.00;64613.53;5033174;28;47301;-77
2023/05/06 05:32:43;;;;;;;;;3.00;3.00;;;;;-147.47;100.00;64613.53;5058200;28;45747;-75
2023/05/06 05:35:09;;;;;;;;;3.67;3.67;;;;;-147.47;100.00;64613.53;5036327;28;45918;-72
2023/05/06 05:37:35;;;;;;;;;2.67;2.67;;;;;-147.47;100.00;64613.53;5034263;28;46199;-73
2023/05/06 05:40:01;;;;;;;;;4.33;3.00;;;;;-147.47;100.00;64613.53;5055677;28;46034;-76
2023/05/06 05:42:26;;;;;;;;;3.33;3.00;;;;;-147.47;100.00;64613.53;5051164;28;45592;-73
2023/05/06 05:44:52;;;;;;;;;2.00;1.67;;;;;-147.47;100.00;64613.53;5058520;28;45646;-72
2023/05/06 05:47:17;;;;;;;;;3.00;1.25;;;;;-147.47;100.00;64613.53;5041539;28;46204;-73
2023/05/06 05:49:43;;;;;;;;;4.00;2.00;;;;;-147.47;100.00;64613.53;5048481;28;45707;-73
2023/05/06 05:52:09;;;;;;;;;2.00;2.00;;;;;-147.47;100.00;64613.53;5053148;28;45860;-75
2023/05/06 05:54:35;;;;;;;;;5.33;2.00;;;;;-147.47;100.00;64613.53;5065080;28;45336;-75
2023/05/06 05:57:01;;;;;;;;;2.00;2.00;;;;;-147.47;100.00;64613.53;5045995;28;45620;-77
2023/05/06 05:59:27;;;;;;;;;4.00;2.67;;;;;-147.47;100.00;64613.53;5057665;28;46086;-75
2023/05/06 06:01:53;;;;;;;;;2.00;2.00;;;;;-147.47;100.00;64613.53;5044338;28;45470;-75
2023/05/06 06:04:18;;;;;;;;;1.00;1.00;;;;;-147.47;100.00;64613.53;5035279;28;45889;-77
2023/05/06 06:06:43;;;;;;;;;6.67;3.67;;;;;-147.47;100.00;64613.53;5049190;28;45498;-75
2023/05/06 06:09:09;;;;;;;;;2.33;2.33;;;;;-147.47;100.00;64613.53;5040642;28;47372;-73
2023/05/06 06:11:35;;;;;;;;;3.67;2.00;;;;;-147.47;100.00;64613.53;5021365;28;45769;-74
2023/05/06 06:14:00;;;;;;;;;1.00;1.00;;;;;-147.47;100.00;64613.53;5058155;28;45943;-76
2023/05/06 06:16:27;;;;;;;;;3.33;2.00;;;;;-147.47;100.00;64613.53;5027771;28;45781;-77
2023/05/06 06:18:52;;;;;;;;;4.00;3.00;;;;;-147.47;100.00;64613.53;5045388;28;45725;-76
2023/05/06 06:21:18;;;;;;;;;2.00;2.00;;;;;-147.47;100.00;64613.53;5047949;28;45687;-76
2023/05/06 06:23:43;;;;;;;;;3.25;1.75;;;;;-147.47;100.00;64613.53;5049502;28;45807;-75
2023/05/06 06:26:09;;;;;;;;;2.00;2.00;;;;;-147.47;100.00;64613.53;5046032;28;45747;-75
2023/05/06 06:28:34;;;;;;;;;3.75;3.75;;;;;-147.47;100.00;64613.53;5027370;28;46293;-75
2023/05/06 06:31:00;;;;;;;;;2.00;2.00;;;;;-147.47;100.00;64613.53;5047298;28;45664;-77
2023/05/06 06:33:26;;;;;;;;;3.00;1.75;;;;;-147.47;100.00;64613.53;5046299;28;45663;-75
2023/05/06 06:35:52;;;;;;;;;3.00;3.00;;;;;-147.47;100.00;64613.53;5047830;28;45528;-74
2023/05/06 06:38:17;;;;;;;;;2.75;2.75;;;;;-147.47;100.00;64613.53;5029533;28;46477;-76
2023/05/06 06:40:43;;;;;;;;;3.00;3.00;;;;;-147.47;100.00;64613.53;5048289;28;45945;-73
2023/05/06 06:43:08;;;;;;;;;3.00;2.00;;;;;-147.47;100.00;64613.53;5046419;28;45555;-74
2023/05/06 06:45:33;;;;;;;;;1.75;1.75;;;;;-147.47;100.00;64613.53;5047120;28;45886;-73
2023/05/06 06:47:59;;;;;;;;;2.00;2.00;;;;;-147.47;100.00;64613.53;5047674;28;45910;-74
2023/05/06 06:50:25;;;;;;;;;2.50;1.00;;;;;-147.47;100.00;64613.53;5044095;28;45755;-75
2023/05/06 06:52:51;;;;;;;;;2.00;2.00;;;;;-147.47;100.00;64613.53;5044765;28;45833;-75
2023/05/06 06:55:16;;;;;;;;;1.00;1.00;;;;;-147.47;100.00;64613.53;5047927;28;45897;-74
2023/05/06 06:57:41;;;;;;;;;1.00;1.00;;;;;-147.47;100.00;64613.53;5049966;28;45659;-77
2023/05/06 07:00:07;;;;;;;;;3.00;3.00;;;;;-147.47;100.00;64613.53;5046974;28;45531;-77
2023/05/06 07:02:33;;;;;;;;;4.75;3.00;;;;;-147.47;100.00;64613.53;5026853;28;46390;-76
2023/05/06 07:04:58;;;;;;;;;3.25;3.25;;;;;-147.47;100.00;64613.53;5044642;28;45718;-76
2023/05/06 07:07:24;;;;;;;;;3.00;2.00;;;;;-147.47;100.00;64613.53;5046575;28;46529;-77
2023/05/06 07:09:49;;;;;;;;;3.00;3.00;;;;;-147.47;100.00;64613.53;5046536;28;45626;-79
2023/05/06 07:12:15;;;;;;;;;4.00;3.00;;;;;-147.47;100.00;64613.53;5048734;28;45988;-75
2023/05/06 07:14:40;;;;;;;;;4.00;2.50;;;;;-147.47;100.00;64613.53;5046355;28;46072;-73
2023/05/06 07:17:35;;;;;;;;;2.00;2.00;;;;;-147.47;100.00;64613.53;5053101;28;45808;-88
2023/05/06 07:20:00;;;;;;;;;2.00;2.00;;;;;-147.47;100.00;64613.53;4991224;28;46304;-77
2023/05/06 07:22:27;;;;;;;;;2.00;2.00;;;;;-147.47;100.00;64613.53;5047509;28;45927;-77
2023/05/06 07:24:53;;;;;;;;;4.25;2.25;;;;;-147.47;100.00;64613.53;5046805;28;45533;-77
2023/05/06 07:27:18;;;;;;;;;3.00;3.00;;;;;-147.47;100.00;64613.53;5024749;28;48281;-76
2023/05/06 07:29:43;;;;;;;;;4.00;3.25;;;;;-147.47;100.00;64613.53;5027725;28;45933;-75
2023/05/06 07:32:09;;;;;;;;;2.00;2.00;;;;;-147.47;100.00;64613.53;5045756;28;45478;-77
2023/05/06 07:34:35;;;;;;;;;2.00;1.00;;;;;-147.47;100.00;64613.53;5047644;28;46036;-77
2023/05/06 07:37:01;;;;;;;;;3.00;3.00;;;;;-147.47;100.00;64613.53;5028801;28;48078;-76
2023/05/06 07:39:27;;;;;;;;;2.00;2.00;;;;;-147.47;100.00;64613.53;5046135;28;45565;-79
2023/05/06 07:41:52;;;;;;;;;1.00;1.00;;;;;-147.47;100.00;64613.53;5050579;28;45533;-80
2023/05/06 07:44:18;;;;;;;;;3.25;2.00;;;;;-147.47;100.00;64613.53;5029308;28;46028;-78
2023/05/06 07:46:44;;;;;;;;;3.50;3.50;;;;;-147.47;100.00;64613.53;5048171;28;47512;-77
2023/05/06 07:49:09;;;;;;;;;1.00;1.00;;;;;-147.47;100.00;64613.53;5050163;28;45748;-75
2023/05/06 07:51:37;;;;;;;;;5.50;3.00;;;;;-147.47;100.00;64613.53;5032090;28;45801;-76
2023/05/06 07:54:03;;;;;;;;;1.50;1.50;;;;;-147.47;100.00;64613.53;5052217;28;45728;-76
2023/05/06 07:56:28;;;;;;;;;3.00;2.00;;;;;-147.47;100.00;64613.53;5033023;28;47165;-77
2023/05/06 07:58:53;;;;;;;;;0.75;0.75;;;;;-147.47;100.00;64613.53;5053441;28;45728;-77
2023/05/06 08:01:19;;;;;;;;;3.50;2.00;;;;;-147.47;100.00;64613.53;5053397;28;45393;-77
2023/05/06 08:03:44;;;;;;;;;2.75;2.00;;;;;-147.47;100.00;64613.53;5055339;28;45418;-77
2023/05/06 08:06:10;;;;;;;;;1.25;1.25;;;;;-147.47;100.00;64613.53;5047361;28;45800;-76
2023/05/06 08:08:35;;;;;;;;;2.50;2.50;;;;;-147.47;100.00;64613.53;5058585;28;45851;-76
2023/05/06 08:11:01;;;;;;;;;2.50;2.50;;;;;-147.47;100.00;64613.53;5050640;28;45883;-76
2023/05/06 08:13:27;;;;;;;;;2.50;2.00;;;;;-147.47;100.00;64613.53;5053496;28;45915;-78
2023/05/06 08:15:52;;;;;;;;;3.00;1.75;;;;;-147.47;100.00;64613.53;5060345;28;45511;-78
2023/05/06 08:18:23;;;;;;;;;2.00;2.00;;;;;-147.47;100.00;64613.53;5058996;28;45725;-75
2023/05/06 08:20:50;;;;;;;;;3.50;2.00;;;;;-147.47;100.00;64613.53;5051894;28;45500;-76
2023/05/06 08:23:15;;;;;;;;;4.00;3.00;;;;;-147.47;100.00;64613.53;5032041;28;45475;-76
2023/05/06 08:25:41;;;;;;;;;2.00;2.00;;;;;-147.47;100.00;64613.53;5052090;28;45806;-77
2023/05/06 08:28:06;;;;;;;;;3.00;2.00;;;;;-147.47;100.00;64613.53;5052624;28;45763;-79
2023/05/06 08:30:31;;;;;;;;;3.00;3.00;;;;;-147.47;100.00;64613.53;5048812;28;45538;-77
2023/05/06 08:32:57;;;;;;;;;3.00;1.75;;;;;-147.47;100.00;64613.53;5052480;28;45462;-78
2023/05/06 08:35:23;;;;;;;;;3.50;2.00;;;;;-147.47;100.00;64613.53;5028382;28;47435;-78
2023/05/06 08:37:49;;;;;;;;;1.75;1.75;;;;;-147.47;100.00;64613.53;5034082;28;45663;-77
2023/05/06 08:40:19;;;;;;;;;3.00;1.25;;;;;-147.47;100.00;64613.53;5032345;28;45522;-75
2023/05/06 08:42:49;;;;;;;;;2.00;2.00;;;;;-147.47;100.00;64613.53;5033296;28;46178;-77
2023/05/06 08:45:16;;;;;;;;;3.50;2.00;;;;;-147.47;100.00;64613.53;5046988;28;46759;-76
2023/05/06 08:47:42;;;;;;;;;3.75;3.50;;;;;-147.47;100.00;64613.53;5052857;28;45467;-77
2023/05/06 08:50:08;;;;;;;;;2.75;2.00;;;;;-147.47;100.00;64613.53;5055359;28;45832;-76
2023/05/06 08:52:35;;;;;;;;;2.00;1.25;;;;;-147.47;100.00;64613.53;5043226;28;47049;-77
2023/05/06 08:55:03;;;;;;;;;4.25;3.00;;;;;-147.47;100.00;64613.53;5046665;28;46784;-77
2023/05/06 08:57:30;;;;;;;;;2.00;2.00;;;;;-147.47;100.00;64613.53;5051352;28;45749;-74
2023/05/06 08:59:56;;;;;;;;;5.75;3.50;;;;;-147.47;100.00;64613.53;5032803;28;45631;-79
2023/05/06 09:02:21;;;;;;;;;3.25;2.25;;;;;-147.47;100.00;64613.53;5054403;28;46208;-77
2023/05/06 09:04:55;;;;;;;;;3.00;3.00;;;;;-147.47;100.00;64613.53;5051763;28;45794;-75
2023/05/06 09:07:21;;;;;;;;;3.75;3.00;;;;;-147.47;100.00;64613.53;5051669;28;45592;-77
2023/05/06 09:09:47;;;;;;;;;5.00;3.25;;;;;-147.47;100.00;64613.53;5043611;28;45490;-76
2023/05/06 09:12:13;;;;;;;;;3.00;3.00;;;;;-147.47;100.00;64613.53;5049766;28;45830;-76
2023/05/06 09:14:40;;;;;;;;;4.25;3.00;;;;;-147.47;100.00;64613.53;5057350;28;45638;-76
2023/05/06 09:17:28;;;;;;;;;3.50;3.50;;;;;-147.47;100.00;64613.53;5059389;28;45416;-76
2023/05/06 09:19:55;;;;;;;;;2.25;1.50;;;;;-147.47;100.00;64613.53;5042671;28;44817;-77
2023/05/06 09:22:24;;;;;;;;;3.00;3.00;;;;;-147.47;100.00;64613.53;5061484;28;45499;-76
2023/05/06 09:24:56;;;;;;;;;2.00;2.00;;;;;-147.47;100.00;64613.53;5042536;28;46135;-76
2023/05/06 09:27:31;;;;;;;;;4.50;2.50;;;;;-147.47;100.00;64613.53;5057609;28;45424;-77
2023/05/06 09:30:01;;;;;;;;;2.00;2.00;;;;;-147.47;100.00;64613.53;5060185;28;45707;-77
2023/05/06 09:32:27;;;;;;;;;4.25;4.00;;;;;-147.47;100.00;64613.53;5040317;28;46374;-76
2023/05/06 09:34:53;;;;;;;;;1.50;1.50;;;;;-147.47;100.00;64613.53;5059168;28;46340;-75
2023/05/06 09:37:19;;;;;;;;;2.50;2.50;;;;;-147.47;100.00;64613.53;5056562;28;45531;-76
2023/05/06 09:39:45;;;;;;;;;3.00;3.00;;;;;-147.47;100.00;64613.53;5056575;28;45058;-77
2023/05/06 09:42:11;;;;;;;;;4.50;3.00;;;;;-147.47;100.00;64613.53;5060850;28;45853;-79
2023/05/06 09:44:36;;;;;;;;;3.00;2.00;;;;;-147.47;100.00;64613.53;5044659;28;46982;-78
2023/05/06 09:47:02;;;;;;;;;2.75;2.00;;;;;-147.47;100.00;64613.53;5061473;28;45527;-76
2023/05/06 09:49:28;;;;;;;;;5.00;3.00;;;;;-147.47;100.00;64613.53;5048362;28;45428;-77
2023/05/06 09:51:55;;;;;;;;;5.00;3.50;;;;;-147.47;100.00;64613.53;5061671;28;45450;-75
2023/05/06 09:54:22;;;;;;;;;3.50;3.50;;;;;-147.47;100.00;64613.53;5064112;28;46089;-78
2023/05/06 09:56:49;;;;;;;;;4.00;4.00;;;;;-147.47;100.00;64613.53;5055074;28;45396;-76
2023/05/06 09:59:17;;;;;;;;;4.25;4.25;;;;;-147.47;100.00;64613.53;5071542;28;45475;-76
2023/05/06 10:01:43;;;;;;;;;3.00;3.00;;;;;-147.47;100.00;64613.53;5063635;28;44851;-77
2023/05/06 10:04:11;;;;;;;;;3.00;3.00;;;;;-147.47;100.00;64613.53;5054189;28;46331;-76
2023/05/06 10:06:39;;;;;;;;;2.25;2.25;;;;;-147.47;100.00;64613.53;5046426;28;45846;-77
2023/05/06 10:09:07;;;;;;;;;4.00;4.00;;;;;-147.47;100.00;64613.53;5041355;28;45429;-76
2023/05/06 10:11:32;;;;;;;;;6.75;5.00;;;;;-147.47;100.00;64613.53;5060199;28;45923;-76
2023/05/06 10:14:00;;;;;;;;;2.75;2.00;;;;;-147.47;100.00;64613.53;5040537;28;47509;-77
2023/05/06 10:16:26;;;;;;;;;4.00;2.75;;;;;-147.47;100.00;64613.53;5057892;28;45747;-76
2023/05/06 10:18:54;;;;;;;;;3.75;3.75;;;;;-147.47;100.00;64613.53;5045686;28;45518;-80
2023/05/06 10:21:23;;;;;;;;;2.00;2.00;;;;;-147.47;100.00;64613.53;5058882;28;45411;-76
2023/05/06 10:24:15;;;;;;;;;3.00;3.00;;;;;-147.47;100.00;64613.53;5065589;28;45152;-73
2023/05/06 10:26:42;;;;;;;;;15.25;10.00;;;;;-147.47;100.00;64613.53;5062802;28;45580;-77
2023/05/06 10:29:09;;;;;;;;;2.75;2.75;;;;;-147.47;100.00;64613.53;5058670;28;45415;-75
2023/05/06 10:31:50;;;;;;;;;2.50;1.75;;;;;-147.47;100.00;64613.53;5041707;28;46246;-73
2023/05/06 10:34:20;;;;;;;;;2.00;2.00;;;;;-147.47;100.00;64613.53;5049611;28;45674;-76
2023/05/06 10:36:47;;;;;;;;;2.00;2.00;;;;;-147.47;100.00;64613.53;5053570;28;45434;-73
2023/05/06 10:39:13;;;;;;;;;3.25;1.75;;;;;-147.47;100.00;64613.53;5055778;28;46449;-74
2023/05/06 10:41:38;;;;;;;;;2.75;2.00;;;;;-147.47;100.00;64613.53;5058725;28;45653;-74
2023/05/06 10:44:04;;;;;;;;;3.50;2.50;;;;;-147.47;100.00;64613.53;5071788;28;45563;-73
2023/05/06 10:46:58;;;;;;;;;3.50;3.50;;;;;-147.47;100.00;64613.53;5049349;28;45747;-73
2023/05/06 10:49:24;;;;;;;;;1.75;1.25;;;;;-147.47;100.00;64613.53;5061490;28;45458;-74
2023/05/06 10:52:10;;;;;;;;;1.00;1.00;;;;;-147.47;100.00;64613.53;5064641;28;45458;-72
2023/05/06 10:54:48;;;;;;;;;5.00;4.00;;;;;-147.47;100.00;64613.53;5036764;28;46597;-74
2023/05/06 10:57:13;;;;;;;;;8.75;7.75;;;;;-147.47;100.00;64613.53;5056949;28;45491;-74
2023/05/06 10:59:48;;;;;;;;;5.00;3.25;;;;;-147.47;100.00;64613.53;5056416;28;45864;-76
2023/05/06 11:02:19;;;;;;;;;5.00;5.00;;;;;-147.47;100.00;64613.53;5062380;28;45552;-77
2023/05/06 11:04:59;;;;;;;;;9.50;6.00;;;;;-147.47;100.00;64613.53;5044997;28;45786;-85
2023/05/06 11:07:25;;;;;;;;;4.25;3.00;;;;;-147.47;100.00;64613.53;5055750;28;45544;-77
2023/05/06 11:10:06;;;;;;;;;4.25;3.00;;;;;-147.47;100.00;64613.53;5041927;28;45521;-77
2023/05/06 11:12:52;;;;;;;;;6.25;6.25;;;;;-147.47;100.00;64613.53;5061662;28;45950;-78
2023/05/06 11:15:25;;;;;;;;;4.75;3.75;;;;;-147.47;100.00;64613.53;5051450;28;46142;-77
2023/05/06 11:17:53;;;;;;;;;5.25;4.25;;;;;-147.47;100.00;64613.53;5055069;28;45589;-75
2023/05/06 11:20:20;;;;;;;;;5.50;5.50;;;;;-147.47;100.00;64613.53;5060567;28;45486;-75
2023/05/06 11:22:46;;;;;;;;;3.50;2.75;;;;;-147.47;100.00;64613.53;5056360;28;45854;-75
2023/05/06 11:25:11;;;;;;;;;2.75;2.25;;;;;-147.47;100.00;64613.53;5058349;28;45560;-75
2023/05/06 11:27:37;;;;;;;;;4.00;3.00;;;;;-147.47;100.00;64613.53;5056178;28;45445;-74
2023/05/06 11:30:04;;;;;;;;;3.00;2.00;;;;;-147.47;100.00;64613.53;5055888;28;45431;-74
2023/05/06 11:32:31;;;;;;;;;1.50;1.50;;;;;-147.47;100.00;64613.53;5056778;28;45518;-75
2023/05/06 11:34:57;;;;;;;;;2.00;2.00;;;;;-147.47;100.00;64613.53;5054813;28;47536;-75
2023/05/06 11:37:24;;;;;;;;;2.50;2.50;;;;;-147.47;100.00;64613.53;5060624;28;45533;-74
2023/05/06 11:39:50;;;;;;;;;3.00;1.75;;;;;-147.47;100.00;64613.53;5052686;28;45626;-74
2023/05/06 11:42:23;;;;;;;;;3.50;2.00;;;;;-147.47;100.00;64613.53;5056975;28;45904;-75
2023/05/06 11:44:49;;;;;;;;;2.25;2.25;;;;;-147.47;100.00;64613.53;5049614;28;46707;-74
2023/05/06 11:47:14;;;;;;;;;1.75;1.75;;;;;-147.47;100.00;64613.53;5046883;28;45498;-74
2023/05/06 11:49:41;;;;;;;;;1.00;1.00;;;;;-147.47;100.00;64613.53;5053273;28;45980;-74
2023/05/06 11:52:09;;;;;;;;;2.00;2.00;;;;;-147.47;100.00;64613.53;5050719;28;47298;-75
2023/05/06 11:54:37;;;;;;;;;1.00;1.00;;;;;-147.47;100.00;64613.53;5037241;28;46976;-73
2023/05/06 11:57:03;;;;;;;;;2.00;2.00;;;;;-147.47;100.00;64613.53;5035256;28;45608;-76
2023/05/06 11:59:36;;;;;;;;;2.50;2.00;;;;;-147.47;100.00;64613.53;5053027;28;45446;-73
2023/05/06 12:02:04;;;;;;;;;4.50;2.25;;;;;-147.47;100.00;64613.53;5054439;28;45349;-73
2023/05/06 12:04:41;;;;;;;;;4.50;3.00;;;;;-147.47;100.00;64613.53;5056713;28;45430;-75
2023/05/06 12:07:08;;;;;;;;;3.00;3.00;;;;;-147.47;100.00;64613.53;5042977;28;45629;-75
2023/05/06 12:09:36;;;;;;;;;2.00;2.00;;;;;-147.47;100.00;64613.53;5064876;28;45830;-74
2023/05/06 12:12:03;;;;;;;;;3.75;2.00;;;;;-147.47;100.00;64613.53;5059558;28;45416;-74
2023/05/06 12:14:29;;;;;;;;;20.00;16.33;;;;;-147.47;100.00;64613.53;5040923;28;47381;-73
2023/05/06 12:16:55;;;;;;;;;2.00;2.00;;;;;-147.47;100.00;64613.53;5054920;28;45603;-73
2023/05/06 12:19:21;;;;;;;;;17.33;15.33;;;;;-147.47;100.00;64613.53;5065404;28;45497;-75
2023/05/06 12:21:46;;;;;;;;;4.75;3.50;;;;;-147.47;100.00;64613.53;5059395;28;45756;-75
2023/05/06 12:24:12;;;;;;;;;2.00;2.00;;;;;-147.47;100.00;64613.53;5040250;28;46381;-75
2023/05/06 12:26:44;;;;;;;;;2.25;1.00;;;;;-147.47;100.00;64613.53;5065196;28;45924;-75